sensor_id;sensor_type;location;lat;lon;timestamp;P1;durP1;ratioP1;P2;durP2;ratioP2
9838;SDS011;4958;48.150;11.506;2022-08-19T00:01:54;3.58;;;3.30;;
9838;SDS011;4958;48.150;11.506;2022-08-19T00:04:24;3.75;;;3.55;;
9838;SDS011;4958;48.150;11.506;2022-08-19T00:06:52;4.05;;;3.75;;
9838;SDS011;4958;48.150;11.506;2022-08-19T00:09:19;4.45;;;4.15;;
9838;SDS011;4958;48.150;11.506;2022-08-19T00:11:46;4.07;;;3.78;;
9838;SDS011;4958;48.150;11.506;2022-08-19T00:14:14;4.07;;;3.78;;
9838;SDS011;4958;48.150;11.506;2022-08-19T00:16:43;4.30;;;4.00;;
9838;SDS011;4958;48.150;11.506;2022-08-19T00:19:11;4.82;;;4.43;;
9838;SDS011;4958;48.150;11.506;2022-08-19T00:21:39;4.57;;;4.28;;
9838;SDS011;4958;48.150;11.506;2022-08-19T00:24:05;4.70;;;4.30;;
9838;SDS011;4958;48.150;11.506;2022-08-19T00:26:33;4.85;;;4.45;;
9838;SDS011;4958;48.150;11.506;2022-08-19T00:29:00;5.18;;;4.75;;
9838;SDS011;4958;48.150;11.506;2022-08-19T00:31:27;5.40;;;4.22;;
9838;SDS011;4958;48.150;11.506;2022-08-19T00:33:53;5.15;;;4.75;;
9838;SDS011;4958;48.150;11.506;2022-08-19T00:36:20;5.55;;;5.03;;
9838;SDS011;4958;48.150;11.506;2022-08-19T00:38:48;5.10;;;4.70;;
9838;SDS011;4958;48.150;11.506;2022-08-19T00:41:18;4.72;;;4.32;;
9838;SDS011;4958;48.150;11.506;2022-08-19T00:43:56;4.85;;;4.45;;
9838;SDS011;4958;48.150;11.506;2022-08-19T00:46:24;5.00;;;4.60;;
9838;SDS011;4958;48.150;11.506;2022-08-19T00:48:50;4.97;;;4.57;;
9838;SDS011;4958;48.150;11.506;2022-08-19T00:51:17;5.68;;;5.15;;
9838;SDS011;4958;48.150;11.506;2022-08-19T00:53:43;5.50;;;5.10;;
9838;SDS011;4958;48.150;11.506;2022-08-19T00:56:11;5.40;;;4.93;;
9838;SDS011;4958;48.150;11.506;2022-08-19T00:58:37;5.65;;;5.25;;
9838;SDS011;4958;48.150;11.506;2022-08-19T01:01:05;6.15;;;5.65;;
9838;SDS011;4958;48.150;11.506;2022-08-19T01:03:32;5.40;;;5.00;;
9838;SDS011;4958;48.150;11.506;2022-08-19T01:05:59;6.20;;;5.60;;
9838;SDS011;4958;48.150;11.506;2022-08-19T01:08:26;6.53;;;5.95;;
9838;SDS011;4958;48.150;11.506;2022-08-19T01:10:53;6.00;;;5.50;;
9838;SDS011;4958;48.150;11.506;2022-08-19T01:13:23;6.63;;;6.13;;
9838;SDS011;4958;48.150;11.506;2022-08-19T01:15:55;6.75;;;6.15;;
9838;SDS011;4958;48.150;11.506;2022-08-19T01:18:24;8.93;;;6.80;;
9838;SDS011;4958;48.150;11.506;2022-08-19T01:20:53;6.82;;;6.32;;
9838;SDS011;4958;48.150;11.506;2022-08-19T01:23:23;7.53;;;6.93;;
9838;SDS011;4958;48.150;11.506;2022-08-19T01:26:08;7.13;;;6.47;;
9838;SDS011;4958;48.150;11.506;2022-08-19T01:28:36;7.55;;;6.95;;
9838;SDS011;4958;48.150;11.506;2022-08-19T01:31:03;7.88;;;7.07;;
9838;SDS011;4958;48.150;11.506;2022-08-19T01:33:30;8.25;;;7.50;;
9838;SDS011;4958;48.150;11.506;2022-08-19T01:36:03;8.40;;;7.70;;
9838;SDS011;4958;48.150;11.506;2022-08-19T01:38:34;8.00;;;7.30;;
9838;SDS011;4958;48.150;11.506;2022-08-19T01:41:02;7.47;;;6.97;;
9838;SDS011;4958;48.150;11.506;2022-08-19T01:43:29;8.05;;;7.35;;
9838;SDS011;4958;48.150;11.506;2022-08-19T01:45:55;7.82;;;7.22;;
9838;SDS011;4958;48.150;11.506;2022-08-19T01:48:21;7.90;;;7.28;;
9838;SDS011;4958;48.150;11.506;2022-08-19T01:50:48;7.85;;;7.15;;
9838;SDS011;4958;48.150;11.506;2022-08-19T01:53:15;7.38;;;6.78;;
9838;SDS011;4958;48.150;11.506;2022-08-19T01:55:43;7.47;;;6.88;;
9838;SDS011;4958;48.150;11.506;2022-08-19T01:58:11;7.85;;;7.15;;
9838;SDS011;4958;48.150;11.506;2022-08-19T02:00:39;7.50;;;6.90;;
9838;SDS011;4958;48.150;11.506;2022-08-19T02:03:06;7.18;;;6.68;;
9838;SDS011;4958;48.150;11.506;2022-08-19T02:05:35;7.03;;;6.47;;
9838;SDS011;4958;48.150;11.506;2022-08-19T02:08:01;6.93;;;6.35;;
9838;SDS011;4958;48.150;11.506;2022-08-19T02:10:28;6.82;;;6.30;;
9838;SDS011;4958;48.150;11.506;2022-08-19T02:12:56;6.90;;;6.32;;
9838;SDS011;4958;48.150;11.506;2022-08-19T02:15:22;6.63;;;6.13;;
9838;SDS011;4958;48.150;11.506;2022-08-19T02:17:50;6.53;;;6.03;;
9838;SDS011;4958;48.150;11.506;2022-08-19T02:20:17;6.28;;;5.80;;
9838;SDS011;4958;48.150;11.506;2022-08-19T02:22:43;5.95;;;5.55;;
9838;SDS011;4958;48.150;11.506;2022-08-19T02:25:10;6.07;;;5.63;;
9838;SDS011;4958;48.150;11.506;2022-08-19T02:27:38;6.07;;;5.57;;
9838;SDS011;4958;48.150;11.506;2022-08-19T02:30:07;5.75;;;5.35;;
9838;SDS011;4958;48.150;11.506;2022-08-19T02:32:37;5.38;;;4.97;;
9838;SDS011;4958;48.150;11.506;2022-08-19T02:35:04;5.45;;;4.95;;
9838;SDS011;4958;48.150;11.506;2022-08-19T02:37:31;5.70;;;5.30;;
9838;SDS011;4958;48.150;11.506;2022-08-19T02:40:24;5.55;;;5.05;;
9838;SDS011;4958;48.150;11.506;2022-08-19T02:42:50;6.03;;;5.53;;
9838;SDS011;4958;48.150;11.506;2022-08-19T02:45:18;5.45;;;5.05;;
9838;SDS011;4958;48.150;11.506;2022-08-19T02:47:45;5.90;;;5.40;;
9838;SDS011;4958;48.150;11.506;2022-08-19T02:50:12;5.70;;;5.10;;
9838;SDS011;4958;48.150;11.506;2022-08-19T02:52:39;5.90;;;5.40;;
9838;SDS011;4958;48.150;11.506;2022-08-19T02:55:06;5.95;;;5.45;;
9838;SDS011;4958;48.150;11.506;2022-08-19T02:57:33;5.50;;;5.00;;
9838;SDS011;4958;48.150;11.506;2022-08-19T03:00:00;5.85;;;5.15;;
9838;SDS011;4958;48.150;11.506;2022-08-19T03:02:31;5.43;;;5.03;;
9838;SDS011;4958;48.150;11.506;2022-08-19T03:04:57;5.35;;;4.95;;
9838;SDS011;4958;48.150;11.506;2022-08-19T03:07:23;5.85;;;5.35;;
9838;SDS011;4958;48.150;11.506;2022-08-19T03:09:50;5.07;;;4.68;;
9838;SDS011;4958;48.150;11.506;2022-08-19T03:12:16;4.78;;;4.47;;
9838;SDS011;4958;48.150;11.506;2022-08-19T03:14:43;5.25;;;4.85;;
9838;SDS011;4958;48.150;11.506;2022-08-19T03:17:10;5.20;;;4.80;;
9838;SDS011;4958;48.150;11.506;2022-08-19T03:19:38;4.97;;;4.60;;
9838;SDS011;4958;48.150;11.506;2022-08-19T03:22:05;4.82;;;4.43;;
9838;SDS011;4958;48.150;11.506;2022-08-19T03:24:32;4.95;;;4.55;;
9838;SDS011;4958;48.150;11.506;2022-08-19T03:26:59;5.32;;;4.93;;
9838;SDS011;4958;48.150;11.506;2022-08-19T03:29:29;4.97;;;4.57;;
9838;SDS011;4958;48.150;11.506;2022-08-19T03:31:56;5.20;;;4.80;;
9838;SDS011;4958;48.150;11.506;2022-08-19T03:34:24;5.28;;;4.82;;
9838;SDS011;4958;48.150;11.506;2022-08-19T03:36:53;5.07;;;4.68;;
9838;SDS011;4958;48.150;11.506;2022-08-19T03:39:21;4.78;;;4.38;;
9838;SDS011;4958;48.150;11.506;2022-08-19T03:41:49;5.20;;;4.80;;
9838;SDS011;4958;48.150;11.506;2022-08-19T03:44:17;4.72;;;4.32;;
9838;SDS011;4958;48.150;11.506;2022-08-19T03:46:45;4.95;;;4.55;;
9838;SDS011;4958;48.150;11.506;2022-08-19T03:49:13;4.45;;;4.15;;
9838;SDS011;4958;48.150;11.506;2022-08-19T03:51:40;5.00;;;4.60;;
9838;SDS011;4958;48.150;11.506;2022-08-19T03:54:11;5.72;;;5.22;;
9838;SDS011;4958;48.150;11.506;2022-08-19T03:56:39;5.55;;;5.15;;
9838;SDS011;4958;48.150;11.506;2022-08-19T03:59:07;6.95;;;5.20;;
9838;SDS011;4958;48.150;11.506;2022-08-19T04:01:36;5.15;;;4.75;;
9838;SDS011;4958;48.150;11.506;2022-08-19T04:04:03;5.63;;;5.13;;
9838;SDS011;4958;48.150;11.506;2022-08-19T04:06:30;5.80;;;5.30;;
9838;SDS011;4958;48.150;11.506;2022-08-19T04:08:59;6.65;;;6.07;;
9838;SDS011;4958;48.150;11.506;2022-08-19T04:11:29;5.78;;;5.38;;
9838;SDS011;4958;48.150;11.506;2022-08-19T04:13:57;6.05;;;5.55;;
9838;SDS011;4958;48.150;11.506;2022-08-19T04:16:25;5.90;;;5.40;;
9838;SDS011;4958;48.150;11.506;2022-08-19T04:18:54;6.18;;;5.68;;
9838;SDS011;4958;48.150;11.506;2022-08-19T04:21:21;6.78;;;6.05;;
9838;SDS011;4958;48.150;11.506;2022-08-19T04:23:52;6.78;;;6.18;;
9838;SDS011;4958;48.150;11.506;2022-08-19T04:26:20;7.45;;;6.85;;
9838;SDS011;4958;48.150;11.506;2022-08-19T04:28:50;7.35;;;6.60;;
9838;SDS011;4958;48.150;11.506;2022-08-19T04:31:18;7.05;;;6.50;;
9838;SDS011;4958;48.150;11.506;2022-08-19T04:33:51;7.05;;;6.43;;
9838;SDS011;4958;48.150;11.506;2022-08-19T04:36:18;6.32;;;5.82;;
9838;SDS011;4958;48.150;11.506;2022-08-19T04:38:46;6.82;;;6.22;;
9838;SDS011;4958;48.150;11.506;2022-08-19T04:41:13;7.07;;;6.35;;
9838;SDS011;4958;48.150;11.506;2022-08-19T04:43:58;7.10;;;6.50;;
9838;SDS011;4958;48.150;11.506;2022-08-19T04:46:25;6.90;;;6.30;;
9838;SDS011;4958;48.150;11.506;2022-08-19T04:48:54;6.82;;;6.18;;
9838;SDS011;4958;48.150;11.506;2022-08-19T04:51:21;7.53;;;6.68;;
9838;SDS011;4958;48.150;11.506;2022-08-19T04:53:48;8.27;;;7.53;;
9838;SDS011;4958;48.150;11.506;2022-08-19T04:56:16;7.65;;;7.05;;
9838;SDS011;4958;48.150;11.506;2022-08-19T04:58:45;8.05;;;7.20;;
9838;SDS011;4958;48.150;11.506;2022-08-19T05:01:14;7.25;;;6.65;;
9838;SDS011;4958;48.150;11.506;2022-08-19T05:03:44;7.43;;;6.72;;
9838;SDS011;4958;48.150;11.506;2022-08-19T05:06:11;7.07;;;6.40;;
9838;SDS011;4958;48.150;11.506;2022-08-19T05:08:39;7.20;;;6.50;;
9838;SDS011;4958;48.150;11.506;2022-08-19T05:11:08;6.95;;;5.90;;
9838;SDS011;4958;48.150;11.506;2022-08-19T05:13:37;7.13;;;6.38;;
9838;SDS011;4958;48.150;11.506;2022-08-19T05:16:04;7.28;;;6.68;;
9838;SDS011;4958;48.150;11.506;2022-08-19T05:18:36;7.55;;;6.88;;
9838;SDS011;4958;48.150;11.506;2022-08-19T05:21:21;7.53;;;6.88;;
9838;SDS011;4958;48.150;11.506;2022-08-19T05:24:05;7.47;;;6.78;;
9838;SDS011;4958;48.150;11.506;2022-08-19T05:26:34;6.72;;;6.22;;
9838;SDS011;4958;48.150;11.506;2022-08-19T05:29:00;7.32;;;6.72;;
9838;SDS011;4958;48.150;11.506;2022-08-19T05:31:27;7.25;;;6.55;;
9838;SDS011;4958;48.150;11.506;2022-08-19T05:33:54;6.93;;;6.32;;
9838;SDS011;4958;48.150;11.506;2022-08-19T05:36:23;8.57;;;6.43;;
9838;SDS011;4958;48.150;11.506;2022-08-19T05:38:49;7.50;;;6.63;;
9838;SDS011;4958;48.150;11.506;2022-08-19T05:41:17;7.38;;;6.68;;
9838;SDS011;4958;48.150;11.506;2022-08-19T05:43:44;7.13;;;6.60;;
9838;SDS011;4958;48.150;11.506;2022-08-19T05:46:15;7.57;;;6.88;;
9838;SDS011;4958;48.150;11.506;2022-08-19T05:48:44;18.67;;;17.05;;
9838;SDS011;4958;48.150;11.506;2022-08-19T05:51:12;16.20;;;14.70;;
9838;SDS011;4958;48.150;11.506;2022-08-19T05:53:38;13.23;;;11.95;;
9838;SDS011;4958;48.150;11.506;2022-08-19T05:56:05;14.73;;;13.43;;
9838;SDS011;4958;48.150;11.506;2022-08-19T05:58:33;9.40;;;8.50;;
9838;SDS011;4958;48.150;11.506;2022-08-19T06:00:59;8.63;;;7.93;;
9838;SDS011;4958;48.150;11.506;2022-08-19T06:03:29;8.80;;;8.10;;
9838;SDS011;4958;48.150;11.506;2022-08-19T06:05:56;9.32;;;8.55;;
9838;SDS011;4958;48.150;11.506;2022-08-19T06:08:26;9.35;;;8.32;;
9838;SDS011;4958;48.150;11.506;2022-08-19T06:10:52;9.02;;;8.23;;
9838;SDS011;4958;48.150;11.506;2022-08-19T06:13:19;9.30;;;8.48;;
9838;SDS011;4958;48.150;11.506;2022-08-19T06:15:46;9.80;;;8.90;;
9838;SDS011;4958;48.150;11.506;2022-08-19T06:18:12;9.07;;;8.23;;
9838;SDS011;4958;48.150;11.506;2022-08-19T06:20:40;9.40;;;8.60;;
9838;SDS011;4958;48.150;11.506;2022-08-19T06:23:07;10.20;;;9.25;;
9838;SDS011;4958;48.150;11.506;2022-08-19T06:25:35;10.50;;;9.60;;
9838;SDS011;4958;48.150;11.506;2022-08-19T06:28:02;12.85;;;11.75;;
9838;SDS011;4958;48.150;11.506;2022-08-19T06:30:28;13.35;;;12.05;;
9838;SDS011;4958;48.150;11.506;2022-08-19T06:32:55;15.30;;;13.93;;
9838;SDS011;4958;48.150;11.506;2022-08-19T06:35:21;13.88;;;12.68;;
9838;SDS011;4958;48.150;11.506;2022-08-19T06:37:48;11.55;;;10.55;;
9838;SDS011;4958;48.150;11.506;2022-08-19T06:40:14;14.30;;;13.02;;
9838;SDS011;4958;48.150;11.506;2022-08-19T06:42:42;11.57;;;10.57;;
9838;SDS011;4958;48.150;11.506;2022-08-19T06:45:08;10.88;;;9.98;;
9838;SDS011;4958;48.150;11.506;2022-08-19T06:47:35;10.73;;;9.82;;
9838;SDS011;4958;48.150;11.506;2022-08-19T06:50:02;11.63;;;10.63;;
9838;SDS011;4958;48.150;11.506;2022-08-19T06:52:29;10.52;;;9.63;;
9838;SDS011;4958;48.150;11.506;2022-08-19T06:55:00;10.98;;;10.00;;
9838;SDS011;4958;48.150;11.506;2022-08-19T06:57:27;9.50;;;8.70;;
9838;SDS011;4958;48.150;11.506;2022-08-19T06:59:58;10.52;;;9.60;;
9838;SDS011;4958;48.150;11.506;2022-08-19T07:02:25;11.13;;;10.23;;
9838;SDS011;4958;48.150;11.506;2022-08-19T07:04:52;11.20;;;10.30;;
9838;SDS011;4958;48.150;11.506;2022-08-19T07:07:19;10.95;;;10.02;;
9838;SDS011;4958;48.150;11.506;2022-08-19T07:09:47;11.35;;;10.35;;
9838;SDS011;4958;48.150;11.506;2022-08-19T07:12:15;14.25;;;12.95;;
9838;SDS011;4958;48.150;11.506;2022-08-19T07:14:42;15.68;;;14.18;;
9838;SDS011;4958;48.150;11.506;2022-08-19T07:17:12;20.48;;;18.73;;
9838;SDS011;4958;48.150;11.506;2022-08-19T07:19:39;13.98;;;12.77;;
9838;SDS011;4958;48.150;11.506;2022-08-19T07:22:07;16.90;;;15.30;;
9838;SDS011;4958;48.150;11.506;2022-08-19T07:24:35;14.43;;;13.02;;
9838;SDS011;4958;48.150;11.506;2022-08-19T07:27:04;14.75;;;13.45;;
9838;SDS011;4958;48.150;11.506;2022-08-19T07:29:32;16.40;;;14.80;;
9838;SDS011;4958;48.150;11.506;2022-08-19T07:32:01;16.17;;;14.60;;
9838;SDS011;4958;48.150;11.506;2022-08-19T07:34:30;15.15;;;13.73;;
9838;SDS011;4958;48.150;11.506;2022-08-19T07:37:02;15.20;;;13.70;;
9838;SDS011;4958;48.150;11.506;2022-08-19T07:39:30;15.85;;;14.13;;
9838;SDS011;4958;48.150;11.506;2022-08-19T07:42:01;16.02;;;14.63;;
9838;SDS011;4958;48.150;11.506;2022-08-19T07:44:31;15.60;;;14.05;;
9838;SDS011;4958;48.150;11.506;2022-08-19T07:46:58;16.02;;;14.52;;
9838;SDS011;4958;48.150;11.506;2022-08-19T07:49:35;16.80;;;14.88;;
9838;SDS011;4958;48.150;11.506;2022-08-19T07:52:03;16.70;;;15.20;;
9838;SDS011;4958;48.150;11.506;2022-08-19T07:54:33;16.92;;;15.23;;
9838;SDS011;4958;48.150;11.506;2022-08-19T07:57:02;16.48;;;15.00;;
9838;SDS011;4958;48.150;11.506;2022-08-19T07:59:29;17.40;;;15.80;;
9838;SDS011;4958;48.150;11.506;2022-08-19T08:01:57;17.05;;;15.45;;
9838;SDS011;4958;48.150;11.506;2022-08-19T08:04:25;18.08;;;16.25;;
9838;SDS011;4958;48.150;11.506;2022-08-19T08:07:11;16.70;;;15.07;;
9838;SDS011;4958;48.150;11.506;2022-08-19T08:09:57;22.73;;;20.50;;
9838;SDS011;4958;48.150;11.506;2022-08-19T08:12:25;22.67;;;20.48;;
9838;SDS011;4958;48.150;11.506;2022-08-19T08:15:08;24.52;;;22.23;;
9838;SDS011;4958;48.150;11.506;2022-08-19T08:17:37;21.33;;;19.42;;
9838;SDS011;4958;48.150;11.506;2022-08-19T08:20:04;19.85;;;17.33;;
9838;SDS011;4958;48.150;11.506;2022-08-19T08:22:33;18.92;;;17.13;;
9838;SDS011;4958;48.150;11.506;2022-08-19T08:25:19;19.95;;;17.98;;
9838;SDS011;4958;48.150;11.506;2022-08-19T08:27:47;19.17;;;17.48;;
9838;SDS011;4958;48.150;11.506;2022-08-19T08:30:17;19.58;;;17.77;;
9838;SDS011;4958;48.150;11.506;2022-08-19T08:32:45;20.00;;;18.10;;
9838;SDS011;4958;48.150;11.506;2022-08-19T08:35:14;19.35;;;17.50;;
9838;SDS011;4958;48.150;11.506;2022-08-19T08:37:44;20.92;;;18.98;;
9838;SDS011;4958;48.150;11.506;2022-08-19T08:40:14;19.88;;;17.83;;
9838;SDS011;4958;48.150;11.506;2022-08-19T08:42:46;20.42;;;18.00;;
9838;SDS011;4958;48.150;11.506;2022-08-19T08:45:17;20.92;;;18.70;;
9838;SDS011;4958;48.150;11.506;2022-08-19T08:47:45;20.33;;;18.33;;
9838;SDS011;4958;48.150;11.506;2022-08-19T08:50:18;22.05;;;19.83;;
9838;SDS011;4958;48.150;11.506;2022-08-19T08:52:52;21.48;;;19.45;;
9838;SDS011;4958;48.150;11.506;2022-08-19T08:55:23;21.83;;;19.75;;
9838;SDS011;4958;48.150;11.506;2022-08-19T08:57:52;22.13;;;19.90;;
9838;SDS011;4958;48.150;11.506;2022-08-19T09:00:25;22.42;;;20.33;;
9838;SDS011;4958;48.150;11.506;2022-08-19T09:02:55;25.98;;;23.25;;
9838;SDS011;4958;48.150;11.506;2022-08-19T09:05:25;22.83;;;20.63;;
9838;SDS011;4958;48.150;11.506;2022-08-19T09:07:58;25.83;;;23.30;;
9838;SDS011;4958;48.150;11.506;2022-08-19T09:10:32;24.92;;;22.42;;
9838;SDS011;4958;48.150;11.506;2022-08-19T09:13:06;23.58;;;21.38;;
9838;SDS011;4958;48.150;11.506;2022-08-19T09:15:59;23.52;;;21.23;;
9838;SDS011;4958;48.150;11.506;2022-08-19T09:18:38;22.83;;;20.42;;
9838;SDS011;4958;48.150;11.506;2022-08-19T09:21:06;24.13;;;21.65;;
9838;SDS011;4958;48.150;11.506;2022-08-19T09:23:35;23.25;;;20.85;;
9838;SDS011;4958;48.150;11.506;2022-08-19T09:26:05;20.98;;;18.88;;
9838;SDS011;4958;48.150;11.506;2022-08-19T09:28:33;20.38;;;18.38;;
9838;SDS011;4958;48.150;11.506;2022-08-19T09:30:59;19.25;;;17.38;;
9838;SDS011;4958;48.150;11.506;2022-08-19T09:33:25;18.30;;;16.42;;
9838;SDS011;4958;48.150;11.506;2022-08-19T09:36:01;18.85;;;16.95;;
9838;SDS011;4958;48.150;11.506;2022-08-19T09:38:31;18.75;;;16.95;;
9838;SDS011;4958;48.150;11.506;2022-08-19T09:41:02;25.33;;;22.85;;
9838;SDS011;4958;48.150;11.506;2022-08-19T09:43:30;19.83;;;17.75;;
9838;SDS011;4958;48.150;11.506;2022-08-19T09:45:58;19.20;;;17.30;;
9838;SDS011;4958;48.150;11.506;2022-08-19T09:48:25;22.48;;;20.23;;
9838;SDS011;4958;48.150;11.506;2022-08-19T09:50:52;22.02;;;19.58;;
9838;SDS011;4958;48.150;11.506;2022-08-19T09:53:18;18.10;;;16.40;;
9838;SDS011;4958;48.150;11.506;2022-08-19T09:55:47;19.23;;;16.48;;
9838;SDS011;4958;48.150;11.506;2022-08-19T09:58:15;18.77;;;16.85;;
9838;SDS011;4958;48.150;11.506;2022-08-19T10:00:41;18.25;;;16.55;;
9838;SDS011;4958;48.150;11.506;2022-08-19T10:03:07;17.70;;;15.95;;
9838;SDS011;4958;48.150;11.506;2022-08-19T10:05:34;17.60;;;16.00;;
9838;SDS011;4958;48.150;11.506;2022-08-19T10:08:17;17.17;;;15.48;;
9838;SDS011;4958;48.150;11.506;2022-08-19T10:10:45;16.48;;;14.98;;
9838;SDS011;4958;48.150;11.506;2022-08-19T10:13:18;16.60;;;15.02;;
9838;SDS011;4958;48.150;11.506;2022-08-19T10:15:49;16.98;;;15.35;;
9838;SDS011;4958;48.150;11.506;2022-08-19T10:18:17;17.00;;;15.30;;
9838;SDS011;4958;48.150;11.506;2022-08-19T10:20:46;17.27;;;15.68;;
9838;SDS011;4958;48.150;11.506;2022-08-19T10:23:14;17.25;;;15.45;;
9838;SDS011;4958;48.150;11.506;2022-08-19T10:25:41;18.08;;;16.17;;
9838;SDS011;4958;48.150;11.506;2022-08-19T10:28:08;16.67;;;14.88;;
9838;SDS011;4958;48.150;11.506;2022-08-19T10:30:38;17.13;;;15.52;;
9838;SDS011;4958;48.150;11.506;2022-08-19T10:33:05;16.92;;;15.25;;
9838;SDS011;4958;48.150;11.506;2022-08-19T10:35:32;16.88;;;15.20;;
9838;SDS011;4958;48.150;11.506;2022-08-19T10:37:59;17.10;;;15.40;;
9838;SDS011;4958;48.150;11.506;2022-08-19T10:40:26;18.73;;;14.85;;
9838;SDS011;4958;48.150;11.506;2022-08-19T10:42:54;16.33;;;14.80;;
9838;SDS011;4958;48.150;11.506;2022-08-19T10:45:21;14.77;;;13.38;;
9838;SDS011;4958;48.150;11.506;2022-08-19T10:47:50;15.00;;;13.60;;
9838;SDS011;4958;48.150;11.506;2022-08-19T10:50:16;14.32;;;13.02;;
9838;SDS011;4958;48.150;11.506;2022-08-19T10:53:03;13.88;;;12.65;;
9838;SDS011;4958;48.150;11.506;2022-08-19T10:55:30;14.02;;;12.73;;
9838;SDS011;4958;48.150;11.506;2022-08-19T10:58:15;13.60;;;12.30;;
9838;SDS011;4958;48.150;11.506;2022-08-19T11:00:42;13.48;;;12.27;;
9838;SDS011;4958;48.150;11.506;2022-08-19T11:03:10;13.75;;;12.35;;
9838;SDS011;4958;48.150;11.506;2022-08-19T11:05:37;13.63;;;12.32;;
9838;SDS011;4958;48.150;11.506;2022-08-19T11:08:04;13.82;;;12.52;;
9838;SDS011;4958;48.150;11.506;2022-08-19T11:10:30;11.00;;;10.00;;
9838;SDS011;4958;48.150;11.506;2022-08-19T11:12:56;11.13;;;10.13;;
9838;SDS011;4958;48.150;11.506;2022-08-19T11:15:23;11.50;;;10.50;;
9838;SDS011;4958;48.150;11.506;2022-08-19T11:17:50;10.45;;;9.52;;
9838;SDS011;4958;48.150;11.506;2022-08-19T11:20:20;7.13;;;6.57;;
9838;SDS011;4958;48.150;11.506;2022-08-19T11:22:48;5.05;;;4.65;;
9838;SDS011;4958;48.150;11.506;2022-08-19T11:25:17;4.10;;;3.80;;
9838;SDS011;4958;48.150;11.506;2022-08-19T11:27:43;4.20;;;3.80;;
9838;SDS011;4958;48.150;11.506;2022-08-19T11:30:12;3.50;;;3.30;;
9838;SDS011;4958;48.150;11.506;2022-08-19T11:32:40;4.03;;;3.63;;
9838;SDS011;4958;48.150;11.506;2022-08-19T11:35:07;3.50;;;3.20;;
9838;SDS011;4958;48.150;11.506;2022-08-19T11:37:37;3.58;;;3.28;;
9838;SDS011;4958;48.150;11.506;2022-08-19T11:40:05;3.70;;;3.40;;
9838;SDS011;4958;48.150;11.506;2022-08-19T11:42:32;3.70;;;3.38;;
9838;SDS011;4958;48.150;11.506;2022-08-19T11:45:17;3.95;;;3.65;;
9838;SDS011;4958;48.150;11.506;2022-08-19T11:47:44;3.63;;;3.33;;
9838;SDS011;4958;48.150;11.506;2022-08-19T11:50:11;3.72;;;2.90;;
9838;SDS011;4958;48.150;11.506;2022-08-19T11:52:39;2.60;;;2.40;;
9838;SDS011;4958;48.150;11.506;2022-08-19T11:55:06;3.60;;;3.30;;
9838;SDS011;4958;48.150;11.506;2022-08-19T11:57:33;2.67;;;2.47;;
9838;SDS011;4958;48.150;11.506;2022-08-19T12:00:00;2.78;;;2.58;;
9838;SDS011;4958;48.150;11.506;2022-08-19T12:02:27;3.95;;;3.65;;
9838;SDS011;4958;48.150;11.506;2022-08-19T12:04:54;2.10;;;2.00;;
9838;SDS011;4958;48.150;11.506;2022-08-19T12:07:20;1.70;;;1.60;;
9838;SDS011;4958;48.150;11.506;2022-08-19T12:09:48;1.98;;;1.88;;
9838;SDS011;4958;48.150;11.506;2022-08-19T12:12:14;1.50;;;1.40;;
9838;SDS011;4958;48.150;11.506;2022-08-19T12:14:41;1.67;;;1.58;;
9838;SDS011;4958;48.150;11.506;2022-08-19T12:17:07;1.92;;;1.60;;
9838;SDS011;4958;48.150;11.506;2022-08-19T12:19:35;1.45;;;1.35;;
9838;SDS011;4958;48.150;11.506;2022-08-19T12:22:02;1.33;;;1.23;;
9838;SDS011;4958;48.150;11.506;2022-08-19T12:24:30;1.50;;;1.40;;
9838;SDS011;4958;48.150;11.506;2022-08-19T12:26:59;1.75;;;1.65;;
9838;SDS011;4958;48.150;11.506;2022-08-19T12:29:26;1.40;;;1.30;;
9838;SDS011;4958;48.150;11.506;2022-08-19T12:31:54;3.33;;;3.08;;
9838;SDS011;4958;48.150;11.506;2022-08-19T12:34:25;4.38;;;3.97;;
9838;SDS011;4958;48.150;11.506;2022-08-19T12:36:54;2.60;;;2.40;;
9838;SDS011;4958;48.150;11.506;2022-08-19T12:39:21;1.85;;;1.75;;
9838;SDS011;4958;48.150;11.506;2022-08-19T12:41:49;2.10;;;2.00;;
9838;SDS011;4958;48.150;11.506;2022-08-19T12:44:16;1.60;;;1.50;;
9838;SDS011;4958;48.150;11.506;2022-08-19T12:46:43;1.90;;;1.35;;
9838;SDS011;4958;48.150;11.506;2022-08-19T12:49:09;1.50;;;1.40;;
9838;SDS011;4958;48.150;11.506;2022-08-19T12:51:36;1.50;;;1.40;;
9838;SDS011;4958;48.150;11.506;2022-08-19T12:54:04;1.52;;;1.42;;
9838;SDS011;4958;48.150;11.506;2022-08-19T12:56:32;1.70;;;1.60;;
9838;SDS011;4958;48.150;11.506;2022-08-19T12:59:00;2.42;;;1.80;;
9838;SDS011;4958;48.150;11.506;2022-08-19T13:01:29;2.50;;;1.60;;
9838;SDS011;4958;48.150;11.506;2022-08-19T13:03:57;1.83;;;1.73;;
9838;SDS011;4958;48.150;11.506;2022-08-19T13:06:24;1.73;;;1.63;;
9838;SDS011;4958;48.150;11.506;2022-08-19T13:08:51;1.90;;;1.80;;
9838;SDS011;4958;48.150;11.506;2022-08-19T13:11:18;1.70;;;1.60;;
9838;SDS011;4958;48.150;11.506;2022-08-19T13:13:49;1.77;;;1.48;;
9838;SDS011;4958;48.150;11.506;2022-08-19T13:16:17;1.65;;;1.55;;
9838;SDS011;4958;48.150;11.506;2022-08-19T13:18:46;1.48;;;1.38;;
9838;SDS011;4958;48.150;11.506;2022-08-19T13:21:13;1.50;;;1.40;;
9838;SDS011;4958;48.150;11.506;2022-08-19T13:23:39;1.75;;;1.65;;
9838;SDS011;4958;48.150;11.506;2022-08-19T13:26:07;2.10;;;2.00;;
9838;SDS011;4958;48.150;11.506;2022-08-19T13:28:34;4.28;;;3.95;;
9838;SDS011;4958;48.150;11.506;2022-08-19T13:31:20;1.80;;;1.70;;
9838;SDS011;4958;48.150;11.506;2022-08-19T13:34:07;2.10;;;2.00;;
9838;SDS011;4958;48.150;11.506;2022-08-19T13:36:33;2.00;;;1.90;;
9838;SDS011;4958;48.150;11.506;2022-08-19T13:39:00;1.85;;;1.75;;
9838;SDS011;4958;48.150;11.506;2022-08-19T13:41:27;2.00;;;1.90;;
9838;SDS011;4958;48.150;11.506;2022-08-19T13:43:54;1.90;;;1.80;;
9838;SDS011;4958;48.150;11.506;2022-08-19T13:46:20;2.40;;;2.20;;
9838;SDS011;4958;48.150;11.506;2022-08-19T13:48:47;1.98;;;1.88;;
9838;SDS011;4958;48.150;11.506;2022-08-19T13:51:16;2.05;;;1.95;;
9838;SDS011;4958;48.150;11.506;2022-08-19T13:53:44;2.08;;;1.85;;
9838;SDS011;4958;48.150;11.506;2022-08-19T13:56:11;2.08;;;1.98;;
9838;SDS011;4958;48.150;11.506;2022-08-19T13:58:38;2.17;;;1.92;;
9838;SDS011;4958;48.150;11.506;2022-08-19T14:01:05;2.45;;;2.30;;
9838;SDS011;4958;48.150;11.506;2022-08-19T14:03:33;2.22;;;2.13;;
9838;SDS011;4958;48.150;11.506;2022-08-19T14:06:00;2.47;;;2.28;;
9838;SDS011;4958;48.150;11.506;2022-08-19T14:08:28;3.25;;;2.60;;
9838;SDS011;4958;48.150;11.506;2022-08-19T14:10:57;2.80;;;2.60;;
9838;SDS011;4958;48.150;11.506;2022-08-19T14:13:24;3.42;;;3.10;;
9838;SDS011;4958;48.150;11.506;2022-08-19T14:15:51;3.03;;;2.83;;
9838;SDS011;4958;48.150;11.506;2022-08-19T14:18:18;3.20;;;2.90;;
9838;SDS011;4958;48.150;11.506;2022-08-19T14:20:45;2.67;;;2.47;;
9838;SDS011;4958;48.150;11.506;2022-08-19T14:23:11;4.10;;;3.80;;
9838;SDS011;4958;48.150;11.506;2022-08-19T14:25:39;4.97;;;4.53;;
9838;SDS011;4958;48.150;11.506;2022-08-19T14:28:06;3.70;;;3.50;;
9838;SDS011;4958;48.150;11.506;2022-08-19T14:30:34;3.63;;;3.38;;
9838;SDS011;4958;48.150;11.506;2022-08-19T14:33:02;2.90;;;2.70;;
9838;SDS011;4958;48.150;11.506;2022-08-19T14:35:29;2.88;;;2.67;;
9838;SDS011;4958;48.150;11.506;2022-08-19T14:37:59;9.60;;;4.03;;
9838;SDS011;4958;48.150;11.506;2022-08-19T14:40:28;10.25;;;4.50;;
9838;SDS011;4958;48.150;11.506;2022-08-19T14:42:57;8.05;;;2.97;;
9838;SDS011;4958;48.150;11.506;2022-08-19T14:45:28;2.40;;;2.28;;
9838;SDS011;4958;48.150;11.506;2022-08-19T14:47:56;2.58;;;2.38;;
9838;SDS011;4958;48.150;11.506;2022-08-19T14:50:24;2.55;;;2.22;;
9838;SDS011;4958;48.150;11.506;2022-08-19T14:52:56;2.40;;;2.20;;
9838;SDS011;4958;48.150;11.506;2022-08-19T14:55:24;2.00;;;1.90;;
9838;SDS011;4958;48.150;11.506;2022-08-19T14:57:50;2.13;;;2.03;;
9838;SDS011;4958;48.150;11.506;2022-08-19T15:00:18;2.28;;;2.17;;
9838;SDS011;4958;48.150;11.506;2022-08-19T15:02:44;2.22;;;2.13;;